sensor_id;sensor_type;location;lat;lon;timestamp;temperature;humidity
29663;DHT22;16578;53.266;7.920;2023-02-28T00:00:13;8.30;71.20
29663;DHT22;16578;53.266;7.920;2023-02-28T00:02:43;8.30;71.10
29663;DHT22;16578;53.266;7.920;2023-02-28T00:05:11;8.30;71.20
29663;DHT22;16578;53.266;7.920;2023-02-28T00:07:37;8.30;71.10
29663;DHT22;16578;53.266;7.920;2023-02-28T00:10:06;8.20;71.00
29663;DHT22;16578;53.266;7.920;2023-02-28T00:12:33;8.20;71.00
29663;DHT22;16578;53.266;7.920;2023-02-28T00:15:00;8.20;71.00
29663;DHT22;16578;53.266;7.920;2023-02-28T00:17:25;8.20;71.00
29663;DHT22;16578;53.266;7.920;2023-02-28T00:19:51;8.20;71.20
29663;DHT22;16578;53.266;7.920;2023-02-28T00:22:19;8.20;71.30
29663;DHT22;16578;53.266;7.920;2023-02-28T00:24:45;8.20;71.10
29663;DHT22;16578;53.266;7.920;2023-02-28T00:27:10;8.20;71.10
29663;DHT22;16578;53.266;7.920;2023-02-28T00:29:36;8.20;71.00
29663;DHT22;16578;53.266;7.920;2023-02-28T00:32:03;8.20;71.10
29663;DHT22;16578;53.266;7.920;2023-02-28T00:34:28;8.20;71.00
29663;DHT22;16578;53.266;7.920;2023-02-28T00:36:54;8.20;71.10
29663;DHT22;16578;53.266;7.920;2023-02-28T00:39:21;8.20;71.10
29663;DHT22;16578;53.266;7.920;2023-02-28T00:41:46;8.20;71.10
29663;DHT22;16578;53.266;7.920;2023-02-28T00:44:12;8.20;71.10
29663;DHT22;16578;53.266;7.920;2023-02-28T00:46:37;8.20;71.10
29663;DHT22;16578;53.266;7.920;2023-02-28T00:49:03;8.20;71.20
29663;DHT22;16578;53.266;7.920;2023-02-28T00:51:29;8.20;71.10
29663;DHT22;16578;53.266;7.920;2023-02-28T00:53:54;8.20;71.10
29663;DHT22;16578;53.266;7.920;2023-02-28T00:56:20;8.10;71.00
29663;DHT22;16578;53.266;7.920;2023-02-28T00:58:46;8.20;71.20
29663;DHT22;16578;53.266;7.920;2023-02-28T01:01:11;8.10;71.10
29663;DHT22;16578;53.266;7.920;2023-02-28T01:03:37;8.20;71.20
29663;DHT22;16578;53.266;7.920;2023-02-28T01:06:03;8.20;71.10
29663;DHT22;16578;53.266;7.920;2023-02-28T01:08:29;8.10;71.00
29663;DHT22;16578;53.266;7.920;2023-02-28T01:10:54;8.10;71.20
29663;DHT22;16578;53.266;7.920;2023-02-28T01:13:20;8.10;71.30
29663;DHT22;16578;53.266;7.920;2023-02-28T01:15:50;8.20;71.30
29663;DHT22;16578;53.266;7.920;2023-02-28T01:18:17;8.10;71.30
29663;DHT22;16578;53.266;7.920;2023-02-28T01:20:42;8.20;71.40
29663;DHT22;16578;53.266;7.920;2023-02-28T01:23:08;8.10;71.40
29663;DHT22;16578;53.266;7.920;2023-02-28T01:25:35;8.10;71.40
29663;DHT22;16578;53.266;7.920;2023-02-28T01:28:01;8.20;71.50
29663;DHT22;16578;53.266;7.920;2023-02-28T01:30:27;8.20;71.50
29663;DHT22;16578;53.266;7.920;2023-02-28T01:32:52;8.20;71.50
29663;DHT22;16578;53.266;7.920;2023-02-28T01:35:19;8.20;71.40
29663;DHT22;16578;53.266;7.920;2023-02-28T01:37:44;8.20;71.40
29663;DHT22;16578;53.266;7.920;2023-02-28T01:40:10;8.20;71.40
29663;DHT22;16578;53.266;7.920;2023-02-28T01:42:36;8.20;71.40
29663;DHT22;16578;53.266;7.920;2023-02-28T01:45:18;8.20;71.40
29663;DHT22;16578;53.266;7.920;2023-02-28T01:47:45;8.20;71.40
29663;DHT22;16578;53.266;7.920;2023-02-28T01:50:18;8.20;71.30
29663;DHT22;16578;53.266;7.920;2023-02-28T01:52:45;8.20;71.40
29663;DHT22;16578;53.266;7.920;2023-02-28T01:55:13;8.20;71.40
29663;DHT22;16578;53.266;7.920;2023-02-28T01:57:48;8.20;71.40
29663;DHT22;16578;53.266;7.920;2023-02-28T02:00:16;8.20;71.50
29663;DHT22;16578;53.266;7.920;2023-02-28T02:02:45;8.20;71.50
29663;DHT22;16578;53.266;7.920;2023-02-28T02:05:25;8.20;71.50
29663;DHT22;16578;53.266;7.920;2023-02-28T02:07:55;8.20;71.60
29663;DHT22;16578;53.266;7.920;2023-02-28T02:10:29;8.20;71.60
29663;DHT22;16578;53.266;7.920;2023-02-28T02:18:46;8.20;71.80
29663;DHT22;16578;53.266;7.920;2023-02-28T02:21:47;8.20;72.50
29663;DHT22;16578;53.266;7.920;2023-02-28T02:35:00;8.20;71.70
29663;DHT22;16578;53.266;7.920;2023-02-28T02:37:51;8.20;71.70
29663;DHT22;16578;53.266;7.920;2023-02-28T02:40:22;8.20;71.70
29663;DHT22;16578;53.266;7.920;2023-02-28T02:43:24;8.20;71.70
29663;DHT22;16578;53.266;7.920;2023-02-28T02:46:00;8.20;71.80
29663;DHT22;16578;53.266;7.920;2023-02-28T02:48:31;8.20;71.80
29663;DHT22;16578;53.266;7.920;2023-02-28T02:51:00;8.20;71.70
29663;DHT22;16578;53.266;7.920;2023-02-28T02:53:36;8.20;71.80
29663;DHT22;16578;53.266;7.920;2023-02-28T02:56:03;8.20;71.90
29663;DHT22;16578;53.266;7.920;2023-02-28T02:58:34;8.20;71.90
29663;DHT22;16578;53.266;7.920;2023-02-28T03:01:02;8.20;71.90
29663;DHT22;16578;53.266;7.920;2023-02-28T03:03:29;8.20;71.80
29663;DHT22;16578;53.266;7.920;2023-02-28T03:06:00;8.20;71.70
29663;DHT22;16578;53.266;7.920;2023-02-28T03:08:27;8.20;71.70
29663;DHT22;16578;53.266;7.920;2023-02-28T03:10:57;8.20;71.70
29663;DHT22;16578;53.266;7.920;2023-02-28T03:13:42;8.20;71.70
29663;DHT22;16578;53.266;7.920;2023-02-28T03:16:36;8.20;71.80
29663;DHT22;16578;53.266;7.920;2023-02-28T03:24:43;8.20;71.90
29663;DHT22;16578;53.266;7.920;2023-02-28T03:27:15;8.20;71.90
29663;DHT22;16578;53.266;7.920;2023-02-28T03:29:46;8.20;71.90
29663;DHT22;16578;53.266;7.920;2023-02-28T03:32:19;8.20;72.00
29663;DHT22;16578;53.266;7.920;2023-02-28T03:35:10;8.20;71.90
29663;DHT22;16578;53.266;7.920;2023-02-28T03:37:40;8.20;71.90
29663;DHT22;16578;53.266;7.920;2023-02-28T03:40:17;8.20;71.70
29663;DHT22;16578;53.266;7.920;2023-02-28T03:42:49;8.20;71.80
29663;DHT22;16578;53.266;7.920;2023-02-28T03:45:20;8.20;71.90
29663;DHT22;16578;53.266;7.920;2023-02-28T03:48:01;8.20;72.00
29663;DHT22;16578;53.266;7.920;2023-02-28T03:50:41;8.20;72.10
29663;DHT22;16578;53.266;7.920;2023-02-28T03:53:30;8.20;72.10
29663;DHT22;16578;53.266;7.920;2023-02-28T03:56:17;8.10;72.00
29663;DHT22;16578;53.266;7.920;2023-02-28T03:58:55;8.10;72.00
29663;DHT22;16578;53.266;7.920;2023-02-28T04:01:23;8.10;72.00
29663;DHT22;16578;53.266;7.920;2023-02-28T04:03:50;8.00;72.10
29663;DHT22;16578;53.266;7.920;2023-02-28T04:06:19;8.10;72.80
29663;DHT22;16578;53.266;7.920;2023-02-28T04:08:46;8.10;71.90
29663;DHT22;16578;53.266;7.920;2023-02-28T04:11:24;8.10;72.00
29663;DHT22;16578;53.266;7.920;2023-02-28T04:13:53;8.10;72.10
29663;DHT22;16578;53.266;7.920;2023-02-28T04:16:18;8.00;72.10
29663;DHT22;16578;53.266;7.920;2023-02-28T04:18:44;8.00;72.10
29663;DHT22;16578;53.266;7.920;2023-02-28T04:21:10;8.00;72.20
29663;DHT22;16578;53.266;7.920;2023-02-28T04:23:36;8.00;72.40
29663;DHT22;16578;53.266;7.920;2023-02-28T04:26:02;8.00;72.50
29663;DHT22;16578;53.266;7.920;2023-02-28T04:28:29;8.00;72.60
29663;DHT22;16578;53.266;7.920;2023-02-28T04:31:02;8.00;72.50
29663;DHT22;16578;53.266;7.920;2023-02-28T04:33:29;8.00;72.40
29663;DHT22;16578;53.266;7.920;2023-02-28T04:35:59;8.00;72.30
29663;DHT22;16578;53.266;7.920;2023-02-28T04:38:25;8.00;72.30
29663;DHT22;16578;53.266;7.920;2023-02-28T04:40:50;8.00;72.30
29663;DHT22;16578;53.266;7.920;2023-02-28T04:43:16;8.00;72.30
29663;DHT22;16578;53.266;7.920;2023-02-28T04:45:41;8.00;72.40
29663;DHT22;16578;53.266;7.920;2023-02-28T04:48:07;8.00;72.40
29663;DHT22;16578;53.266;7.920;2023-02-28T04:50:32;8.00;72.40
29663;DHT22;16578;53.266;7.920;2023-02-28T04:52:58;8.00;72.40
29663;DHT22;16578;53.266;7.920;2023-02-28T04:55:24;7.90;72.40
29663;DHT22;16578;53.266;7.920;2023-02-28T04:57:49;8.00;72.50
29663;DHT22;16578;53.266;7.920;2023-02-28T05:00:15;8.00;72.70
29663;DHT22;16578;53.266;7.920;2023-02-28T05:02:42;8.00;72.60
29663;DHT22;16578;53.266;7.920;2023-02-28T05:05:08;8.00;72.60
29663;DHT22;16578;53.266;7.920;2023-02-28T05:07:33;8.00;72.50
29663;DHT22;16578;53.266;7.920;2023-02-28T05:09:59;8.00;72.50
29663;DHT22;16578;53.266;7.920;2023-02-28T05:12:24;8.00;72.40
29663;DHT22;16578;53.266;7.920;2023-02-28T05:14:50;8.00;72.40
29663;DHT22;16578;53.266;7.920;2023-02-28T05:17:15;7.90;72.40
29663;DHT22;16578;53.266;7.920;2023-02-28T05:19:42;7.90;72.40
29663;DHT22;16578;53.266;7.920;2023-02-28T05:22:13;7.90;72.40
29663;DHT22;16578;53.266;7.920;2023-02-28T05:24:39;7.90;72.60
29663;DHT22;16578;53.266;7.920;2023-02-28T05:27:05;7.90;72.60
29663;DHT22;16578;53.266;7.920;2023-02-28T05:29:30;7.90;72.50
29663;DHT22;16578;53.266;7.920;2023-02-28T05:31:56;7.90;72.50
29663;DHT22;16578;53.266;7.920;2023-02-28T05:34:21;7.90;72.50
29663;DHT22;16578;53.266;7.920;2023-02-28T05:36:47;7.90;72.50
29663;DHT22;16578;53.266;7.920;2023-02-28T05:39:12;7.90;72.70
29663;DHT22;16578;53.266;7.920;2023-02-28T05:41:42;7.90;72.60
29663;DHT22;16578;53.266;7.920;2023-02-28T05:44:08;7.90;72.60
29663;DHT22;16578;53.266;7.920;2023-02-28T05:46:34;7.80;72.70
29663;DHT22;16578;53.266;7.920;2023-02-28T05:48:59;7.80;72.70
29663;DHT22;16578;53.266;7.920;2023-02-28T05:51:26;7.80;72.60
29663;DHT22;16578;53.266;7.920;2023-02-28T05:53:51;7.80;72.60
29663;DHT22;16578;53.266;7.920;2023-02-28T05:56:17;7.80;72.60
29663;DHT22;16578;53.266;7.920;2023-02-28T05:58:42;7.80;72.60
29663;DHT22;16578;53.266;7.920;2023-02-28T06:01:36;7.80;72.60
29663;DHT22;16578;53.266;7.920;2023-02-28T06:04:03;7.70;72.70
29663;DHT22;16578;53.266;7.920;2023-02-28T06:06:29;7.70;72.60
29663;DHT22;16578;53.266;7.920;2023-02-28T06:08:55;7.70;72.70
29663;DHT22;16578;53.266;7.920;2023-02-28T06:11:21;7.70;72.60
29663;DHT22;16578;53.266;7.920;2023-02-28T06:13:47;7.70;72.60
29663;DHT22;16578;53.266;7.920;2023-02-28T06:16:13;7.70;72.60
29663;DHT22;16578;53.266;7.920;2023-02-28T06:18:39;7.70;72.60
29663;DHT22;16578;53.266;7.920;2023-02-28T06:21:04;7.70;72.70
29663;DHT22;16578;53.266;7.920;2023-02-28T06:23:30;7.70;72.70
29663;DHT22;16578;53.266;7.920;2023-02-28T06:25:56;7.70;72.80
29663;DHT22;16578;53.266;7.920;2023-02-28T06:28:24;7.70;72.70
29663;DHT22;16578;53.266;7.920;2023-02-28T06:30:50;7.70;72.70
29663;DHT22;16578;53.266;7.920;2023-02-28T06:33:16;7.70;72.70
29663;DHT22;16578;53.266;7.920;2023-02-28T06:35:44;7.60;72.60
29663;DHT22;16578;53.266;7.920;2023-02-28T06:38:09;7.60;72.70
29663;DHT22;16578;53.266;7.920;2023-02-28T06:40:36;7.60;72.70
29663;DHT22;16578;53.266;7.920;2023-02-28T06:43:02;7.60;72.80
29663;DHT22;16578;53.266;7.920;2023-02-28T06:45:28;7.60;72.80
29663;DHT22;16578;53.266;7.920;2023-02-28T06:47:53;7.60;72.90
29663;DHT22;16578;53.266;7.920;2023-02-28T06:50:19;7.60;72.90
29663;DHT22;16578;53.266;7.920;2023-02-28T06:52:46;7.50;72.90
29663;DHT22;16578;53.266;7.920;2023-02-28T06:55:11;7.50;73.00
29663;DHT22;16578;53.266;7.920;2023-02-28T06:57:37;7.50;73.00
29663;DHT22;16578;53.266;7.920;2023-02-28T07:00:09;7.50;73.00
29663;DHT22;16578;53.266;7.920;2023-02-28T07:02:36;7.50;73.00
29663;DHT22;16578;53.266;7.920;2023-02-28T07:05:03;7.50;72.90
29663;DHT22;16578;53.266;7.920;2023-02-28T07:07:29;7.50;72.80
29663;DHT22;16578;53.266;7.920;2023-02-28T07:09:54;7.40;72.70
29663;DHT22;16578;53.266;7.920;2023-02-28T07:12:20;7.40;72.70
29663;DHT22;16578;53.266;7.920;2023-02-28T07:14:46;7.40;72.60
29663;DHT22;16578;53.266;7.920;2023-02-28T07:17:11;7.40;72.50
29663;DHT22;16578;53.266;7.920;2023-02-28T07:19:38;7.30;72.40
29663;DHT22;16578;53.266;7.920;2023-02-28T07:22:04;7.30;72.50
29663;DHT22;16578;53.266;7.920;2023-02-28T07:24:29;7.30;72.70
29663;DHT22;16578;53.266;7.920;2023-02-28T07:26:55;7.30;72.80
29663;DHT22;16578;53.266;7.920;2023-02-28T07:29:21;7.20;72.80
29663;DHT22;16578;53.266;7.920;2023-02-28T07:31:47;7.20;73.00
29663;DHT22;16578;53.266;7.920;2023-02-28T07:34:13;7.20;73.10
29663;DHT22;16578;53.266;7.920;2023-02-28T07:36:39;7.20;74.10
29663;DHT22;16578;53.266;7.920;2023-02-28T07:39:04;7.20;73.30
29663;DHT22;16578;53.266;7.920;2023-02-28T07:41:30;7.20;73.40
29663;DHT22;16578;53.266;7.920;2023-02-28T07:43:58;7.20;73.50
29663;DHT22;16578;53.266;7.920;2023-02-28T07:46:25;7.10;73.70
29663;DHT22;16578;53.266;7.920;2023-02-28T07:48:51;7.20;73.60
29663;DHT22;16578;53.266;7.920;2023-02-28T07:51:18;7.30;73.50
29663;DHT22;16578;53.266;7.920;2023-02-28T07:53:44;7.30;73.50
29663;DHT22;16578;53.266;7.920;2023-02-28T07:56:09;7.30;73.50
29663;DHT22;16578;53.266;7.920;2023-02-28T07:58:36;7.30;73.50
29663;DHT22;16578;53.266;7.920;2023-02-28T08:01:06;7.30;73.30
29663;DHT22;16578;53.266;7.920;2023-02-28T08:03:33;7.30;73.30
29663;DHT22;16578;53.266;7.920;2023-02-28T08:05:58;7.40;73.40
29663;DHT22;16578;53.266;7.920;2023-02-28T08:08:24;7.40;73.50
29663;DHT22;16578;53.266;7.920;2023-02-28T08:10:53;7.50;73.70
29663;DHT22;16578;53.266;7.920;2023-02-28T08:13:19;7.50;73.70
29663;DHT22;16578;53.266;7.920;2023-02-28T08:15:44;7.60;73.60
29663;DHT22;16578;53.266;7.920;2023-02-28T08:18:11;7.70;73.60
29663;DHT22;16578;53.266;7.920;2023-02-28T08:20:36;7.80;73.30
29663;DHT22;16578;53.266;7.920;2023-02-28T08:23:02;7.80;73.10
29663;DHT22;16578;53.266;7.920;2023-02-28T08:25:27;7.90;73.00
29663;DHT22;16578;53.266;7.920;2023-02-28T08:27:53;8.00;72.70
29663;DHT22;16578;53.266;7.920;2023-02-28T08:30:19;8.00;72.30
29663;DHT22;16578;53.266;7.920;2023-02-28T08:32:44;8.00;72.10
29663;DHT22;16578;53.266;7.920;2023-02-28T08:35:10;8.10;71.90
29663;DHT22;16578;53.266;7.920;2023-02-28T08:37:35;8.10;71.70
29663;DHT22;16578;53.266;7.920;2023-02-28T08:40:01;8.10;71.60
29663;DHT22;16578;53.266;7.920;2023-02-28T08:42:26;8.10;71.50
29663;DHT22;16578;53.266;7.920;2023-02-28T08:44:52;8.10;71.40
29663;DHT22;16578;53.266;7.920;2023-02-28T08:47:18;8.10;71.20
29663;DHT22;16578;53.266;7.920;2023-02-28T08:49:44;8.20;71.10
29663;DHT22;16578;53.266;7.920;2023-02-28T08:52:09;8.20;71.10
29663;DHT22;16578;53.266;7.920;2023-02-28T08:54:35;8.20;70.80
29663;DHT22;16578;53.266;7.920;2023-02-28T08:57:01;8.20;70.60
29663;DHT22;16578;53.266;7.920;2023-02-28T08:59:27;8.20;70.50
29663;DHT22;16578;53.266;7.920;2023-02-28T09:01:52;8.20;70.50
29663;DHT22;16578;53.266;7.920;2023-02-28T09:04:18;8.20;70.40
29663;DHT22;16578;53.266;7.920;2023-02-28T09:06:44;8.30;70.40
29663;DHT22;16578;53.266;7.920;2023-02-28T09:09:10;8.30;70.40
29663;DHT22;16578;53.266;7.920;2023-02-28T09:11:36;8.30;70.20
29663;DHT22;16578;53.266;7.920;2023-02-28T09:14:01;8.30;70.10
29663;DHT22;16578;53.266;7.920;2023-02-28T09:16:29;8.40;70.10
29663;DHT22;16578;53.266;7.920;2023-02-28T09:18:56;8.40;69.90
29663;DHT22;16578;53.266;7.920;2023-02-28T09:21:21;8.40;69.60
29663;DHT22;16578;53.266;7.920;2023-02-28T09:23:48;8.40;69.50
29663;DHT22;16578;53.266;7.920;2023-02-28T09:26:23;8.40;69.40
29663;DHT22;16578;53.266;7.920;2023-02-28T09:28:50;8.50;69.20
29663;DHT22;16578;53.266;7.920;2023-02-28T09:31:18;8.50;69.20
29663;DHT22;16578;53.266;7.920;2023-02-28T09:33:49;8.50;69.20
29663;DHT22;16578;53.266;7.920;2023-02-28T09:36:15;8.60;68.90
29663;DHT22;16578;53.266;7.920;2023-02-28T09:38:40;8.60;68.60
29663;DHT22;16578;53.266;7.920;2023-02-28T09:41:25;8.60;68.50
29663;DHT22;16578;53.266;7.920;2023-02-28T09:43:56;8.60;68.00
29663;DHT22;16578;53.266;7.920;2023-02-28T09:46:26;8.70;68.40
29663;DHT22;16578;53.266;7.920;2023-02-28T09:48:53;8.60;68.20
29663;DHT22;16578;53.266;7.920;2023-02-28T09:51:33;8.70;68.40
29663;DHT22;16578;53.266;7.920;2023-02-28T09:54:00;8.80;67.50
29663;DHT22;16578;53.266;7.920;2023-02-28T09:56:38;8.80;67.30
29663;DHT22;16578;53.266;7.920;2023-02-28T10:05:07;8.90;66.40
29663;DHT22;16578;53.266;7.920;2023-02-28T10:10:39;9.00;66.20
29663;DHT22;16578;53.266;7.920;2023-02-28T10:16:01;9.00;65.70
29663;DHT22;16578;53.266;7.920;2023-02-28T10:18:49;9.00;65.60
29663;DHT22;16578;53.266;7.920;2023-02-28T10:21:21;9.00;65.80
29663;DHT22;16578;53.266;7.920;2023-02-28T10:23:53;9.00;65.10
29663;DHT22;16578;53.266;7.920;2023-02-28T10:26:21;9.00;64.80
29663;DHT22;16578;53.266;7.920;2023-02-28T10:28:51;9.00;64.70
29663;DHT22;16578;53.266;7.920;2023-02-28T10:31:19;9.10;64.50
29663;DHT22;16578;53.266;7.920;2023-02-28T10:33:45;9.10;64.20
29663;DHT22;16578;53.266;7.920;2023-02-28T10:36:17;9.20;64.00
29663;DHT22;16578;53.266;7.920;2023-02-28T10:38:44;9.20;63.40
29663;DHT22;16578;53.266;7.920;2023-02-28T10:41:28;9.20;63.30
29663;DHT22;16578;53.266;7.920;2023-02-28T10:44:13;9.30;63.30
29663;DHT22;16578;53.266;7.920;2023-02-28T10:46:40;9.30;63.10
29663;DHT22;16578;53.266;7.920;2023-02-28T10:49:14;9.40;63.80
29663;DHT22;16578;53.266;7.920;2023-02-28T10:51:41;9.50;63.10
29663;DHT22;16578;53.266;7.920;2023-02-28T10:54:34;9.50;62.90
29663;DHT22;16578;53.266;7.920;2023-02-28T10:57:19;9.60;62.10
29663;DHT22;16578;53.266;7.920;2023-02-28T10:59:46;9.60;61.60
29663;DHT22;16578;53.266;7.920;2023-02-28T11:02:36;9.60;61.80
29663;DHT22;16578;53.266;7.920;2023-02-28T11:05:26;9.70;61.50
29663;DHT22;16578;53.266;7.920;2023-02-28T11:07:54;9.70;61.30
29663;DHT22;16578;53.266;7.920;2023-02-28T11:10:23;9.70;61.70
29663;DHT22;16578;53.266;7.920;2023-02-28T11:12:55;9.70;61.60
29663;DHT22;16578;53.266;7.920;2023-02-28T11:15:27;9.70;61.50
29663;DHT22;16578;53.266;7.920;2023-02-28T11:17:58;9.80;61.40
29663;DHT22;16578;53.266;7.920;2023-02-28T11:20:27;9.80;61.20
29663;DHT22;16578;53.266;7.920;2023-02-28T11:22:53;9.80;61.20
29663;DHT22;16578;53.266;7.920;2023-02-28T11:25:30;9.80;61.00
29663;DHT22;16578;53.266;7.920;2023-02-28T11:28:03;9.90;61.00
29663;DHT22;16578;53.266;7.920;2023-02-28T11:30:41;9.90;61.00
29663;DHT22;16578;53.266;7.920;2023-02-28T11:35:53;10.00;60.60
29663;DHT22;16578;53.266;7.920;2023-02-28T11:38:21;10.00;60.90
29663;DHT22;16578;53.266;7.920;2023-02-28T11:48:48;10.10;59.40
29663;DHT22;16578;53.266;7.920;2023-02-28T11:51:23;10.10;59.70
29663;DHT22;16578;53.266;7.920;2023-02-28T11:56:39;10.10;59.30
29663;DHT22;16578;53.266;7.920;2023-02-28T11:59:32;10.10;59.20
29663;DHT22;16578;53.266;7.920;2023-02-28T12:02:16;10.10;58.80
29663;DHT22;16578;53.266;7.920;2023-02-28T12:05:01;10.10;58.80
29663;DHT22;16578;53.266;7.920;2023-02-28T12:07:53;10.20;58.40
29663;DHT22;16578;53.266;7.920;2023-02-28T12:10:25;10.20;58.00
29663;DHT22;16578;53.266;7.920;2023-02-28T12:16:06;10.10;57.50
29663;DHT22;16578;53.266;7.920;2023-02-28T12:18:57;10.10;57.70
29663;DHT22;16578;53.266;7.920;2023-02-28T12:21:43;10.10;57.30
29663;DHT22;16578;53.266;7.920;2023-02-28T12:27:09;10.10;57.60
29663;DHT22;16578;53.266;7.920;2023-02-28T12:32:38;10.10;57.70
29663;DHT22;16578;53.266;7.920;2023-02-28T12:35:18;10.00;57.60
29663;DHT22;16578;53.266;7.920;2023-02-28T12:38:01;10.10;57.20
29663;DHT22;16578;53.266;7.920;2023-02-28T12:41:19;10.10;57.30
29663;DHT22;16578;53.266;7.920;2023-02-28T12:43:21;10.00;57.20
29663;DHT22;16578;53.266;7.920;2023-02-28T12:45:57;10.00;57.40
29663;DHT22;16578;53.266;7.920;2023-02-28T12:48:29;10.00;57.20
29663;DHT22;16578;53.266;7.920;2023-02-28T12:50:57;10.00;57.30
29663;DHT22;16578;53.266;7.920;2023-02-28T12:56:39;10.00;56.70
29663;DHT22;16578;53.266;7.920;2023-02-28T13:10:45;10.00;56.40
29663;DHT22;16578;53.266;7.920;2023-02-28T13:13:15;10.00;56.00
29663;DHT22;16578;53.266;7.920;2023-02-28T13:15:59;10.00;56.00
29663;DHT22;16578;53.266;7.920;2023-02-28T13:18:51;10.00;55.60
29663;DHT22;16578;53.266;7.920;2023-02-28T13:21:29;10.10;55.50
29663;DHT22;16578;53.266;7.920;2023-02-28T13:24:02;10.00;55.80
29663;DHT22;16578;53.266;7.920;2023-02-28T13:34:38;10.10;55.30
29663;DHT22;16578;53.266;7.920;2023-02-28T13:48:01;10.10;54.50
29663;DHT22;16578;53.266;7.920;2023-02-28T13:50:38;10.10;54.70
29663;DHT22;16578;53.266;7.920;2023-02-28T13:55:51;10.10;54.80
29663;DHT22;16578;53.266;7.920;2023-02-28T13:58:25;10.20;55.00
29663;DHT22;16578;53.266;7.920;2023-02-28T14:04:23;10.20;54.90
29663;DHT22;16578;53.266;7.920;2023-02-28T14:06:56;10.20;55.10
29663;DHT22;16578;53.266;7.920;2023-02-28T14:09:41;10.20;55.30
29663;DHT22;16578;53.266;7.920;2023-02-28T14:15:47;10.20;54.30
29663;DHT22;16578;53.266;7.920;2023-02-28T14:20:57;10.20;54.30
29663;DHT22;16578;53.266;7.920;2023-02-28T14:23:44;10.20;54.30
29663;DHT22;16578;53.266;7.920;2023-02-28T14:31:58;10.20;53.70
29663;DHT22;16578;53.266;7.920;2023-02-28T14:34:48;10.20;53.70
29663;DHT22;16578;53.266;7.920;2023-02-28T14:37:28;10.20;53.90
29663;DHT22;16578;53.266;7.920;2023-02-28T14:39:54;10.20;53.60
29663;DHT22;16578;53.266;7.920;2023-02-28T14:42:34;10.20;53.60
29663;DHT22;16578;53.266;7.920;2023-02-28T14:45:00;10.20;53.20
29663;DHT22;16578;53.266;7.920;2023-02-28T14:47:31;10.10;53.80
29663;DHT22;16578;53.266;7.920;2023-02-28T14:49:59;10.20;54.50
29663;DHT22;16578;53.266;7.920;2023-02-28T14:52:31;10.20;53.50
29663;DHT22;16578;53.266;7.920;2023-02-28T14:55:00;10.20;53.20
29663;DHT22;16578;53.266;7.920;2023-02-28T14:57:31;10.20;53.00
29663;DHT22;16578;53.266;7.920;2023-02-28T15:00:16;10.20;53.00
29663;DHT22;16578;53.266;7.920;2023-02-28T15:02:43;10.20;52.70
29663;DHT22;16578;53.266;7.920;2023-02-28T15:07:47;10.20;52.60
29663;DHT22;16578;53.266;7.920;2023-02-28T15:10:19;10.20;52.70
29663;DHT22;16578;53.266;7.920;2023-02-28T15:12:57;10.20;52.60
29663;DHT22;16578;53.266;7.920;2023-02-28T15:15:47;10.20;53.20
29663;DHT22;16578;53.266;7.920;2023-02-28T15:18:27;10.20;52.00
29663;DHT22;16578;53.266;7.920;2023-02-28T15:20:53;10.20;52.10
29663;DHT22;16578;53.266;7.920;2023-02-28T15:23:21;10.20;52.50
29663;DHT22;16578;53.266;7.920;2023-02-28T15:25:48;10.10;52.20
29663;DHT22;16578;53.266;7.920;2023-02-28T15:28:17;10.10;52.20
29663;DHT22;16578;53.266;7.920;2023-02-28T15:30:56;10.10;52.00
29663;DHT22;16578;53.266;7.920;2023-02-28T15:33:28;10.10;51.90
29663;DHT22;16578;53.266;7.920;2023-02-28T15:38:36;10.10;51.90
29663;DHT22;16578;53.266;7.920;2023-02-28T15:41:02;10.10;52.30
29663;DHT22;16578;53.266;7.920;2023-02-28T15:43:32;10.10;52.20
29663;DHT22;16578;53.266;7.920;2023-02-28T15:46:03;10.10;51.90
29663;DHT22;16578;53.266;7.920;2023-02-28T15:48:35;10.10;51.70
29663;DHT22;16578;53.266;7.920;2023-02-28T15:51:09;10.10;51.70
29663;DHT22;16578;53.266;7.920;2023-02-28T15:54:00;10.10;51.70
29663;DHT22;16578;53.266;7.920;2023-02-28T15:56:30;10.00;51.50
29663;DHT22;16578;53.266;7.920;2023-02-28T15:58:58;10.00;51.80
29663;DHT22;16578;53.266;7.920;2023-02-28T16:01:27;10.00;51.90
29663;DHT22;16578;53.266;7.920;2023-02-28T16:04:01;10.00;51.90
29663;DHT22;16578;53.266;7.920;2023-02-28T16:06:40;10.00;51.90
29663;DHT22;16578;53.266;7.920;2023-02-28T16:09:14;10.00;51.90
29663;DHT22;16578;53.266;7.920;2023-02-28T16:11:48;10.00;52.00
29663;DHT22;16578;53.266;7.920;2023-02-28T16:14:17;9.90;51.80
29663;DHT22;16578;53.266;7.920;2023-02-28T16:16:45;9.90;51.80
29663;DHT22;16578;53.266;7.920;2023-02-28T16:19:12;9.90;51.90
29663;DHT22;16578;53.266;7.920;2023-02-28T16:21:37;9.90;52.10
29663;DHT22;16578;53.266;7.920;2023-02-28T16:24:03;9.90;52.20
29663;DHT22;16578;53.266;7.920;2023-02-28T16:26:28;9.90;52.40
29663;DHT22;16578;53.266;7.920;2023-02-28T16:28:54;9.80;52.30
29663;DHT22;16578;53.266;7.920;2023-02-28T16:31:20;9.80;52.30
29663;DHT22;16578;53.266;7.920;2023-02-28T16:33:46;9.80;52.30
29663;DHT22;16578;53.266;7.920;2023-02-28T16:36:21;9.80;52.30
29663;DHT22;16578;53.266;7.920;2023-02-28T16:38:47;9.80;52.30
29663;DHT22;16578;53.266;7.920;2023-02-28T16:41:18;9.70;52.40
29663;DHT22;16578;53.266;7.920;2023-02-28T16:43:46;9.70;52.50
29663;DHT22;16578;53.266;7.920;2023-02-28T16:46:13;9.70;52.70
29663;DHT22;16578;53.266;7.920;2023-02-28T16:48:39;9.60;52.90
29663;DHT22;16578;53.266;7.920;2023-02-28T16:51:08;9.60;53.00
29663;DHT22;16578;53.266;7.920;2023-02-28T16:53:36;9.60;53.00
29663;DHT22;16578;53.266;7.920;2023-02-28T16:56:01;9.60;53.10
29663;DHT22;16578;53.266;7.920;2023-02-28T16:58:27;9.50;53.10
29663;DHT22;16578;53.266;7.920;2023-02-28T17:00:53;9.50;53.30
29663;DHT22;16578;53.266;7.920;2023-02-28T17:03:26;9.50;53.40
29663;DHT22;16578;53.266;7.920;2023-02-28T17:05:53;9.50;53.30
29663;DHT22;16578;53.266;7.920;2023-02-28T17:08:18;9.50;53.60
29663;DHT22;16578;53.266;7.920;2023-02-28T17:10:44;9.50;53.80
29663;DHT22;16578;53.266;7.920;2023-02-28T17:13:09;9.40;53.90
29663;DHT22;16578;53.266;7.920;2023-02-28T17:15:36;9.40;54.20
29663;DHT22;16578;53.266;7.920;2023-02-28T17:18:03;9.30;54.30
29663;DHT22;16578;53.266;7.920;2023-02-28T17:20:29;9.30;54.40
29663;DHT22;16578;53.266;7.920;2023-02-28T17:22:55;9.20;54.50
29663;DHT22;16578;53.266;7.920;2023-02-28T17:25:22;9.10;54.60
29663;DHT22;16578;53.266;7.920;2023-02-28T17:27:47;9.10;54.80
29663;DHT22;16578;53.266;7.920;2023-02-28T17:30:22;9.00;55.00
29663;DHT22;16578;53.266;7.920;2023-02-28T17:32:47;9.00;55.00
29663;DHT22;16578;53.266;7.920;2023-02-28T17:35:13;8.90;54.90
29663;DHT22;16578;53.266;7.920;2023-02-28T17:37:39;8.80;54.90
29663;DHT22;16578;53.266;7.920;2023-02-28T17:40:06;8.70;55.00
29663;DHT22;16578;53.266;7.920;2023-02-28T17:42:31;8.70;55.20
29663;DHT22;16578;53.266;7.920;2023-02-28T17:44:57;8.60;55.30
29663;DHT22;16578;53.266;7.920;2023-02-28T17:47:22;8.50;55.50
29663;DHT22;16578;53.266;7.920;2023-02-28T17:49:48;8.40;55.60
29663;DHT22;16578;53.266;7.920;2023-02-28T17:52:14;8.30;55.50